createdAt,value
2023-08-25T03:04:54.737Z,0
2023-08-25T03:19:54.952Z,0
2023-08-25T03:34:55.156Z,0
2023-08-25T03:49:54.466Z,0
2023-08-25T04:04:54.762Z,0.01
2023-08-25T04:19:55.045Z,0
2023-08-25T04:34:54.604Z,0
2023-08-25T04:49:54.787Z,0.01
2023-08-25T05:04:55.037Z,0
2023-08-25T05:19:55.295Z,0
2023-08-25T05:34:54.714Z,0.04
2023-08-25T05:49:55.060Z,0.01
2023-08-25T06:04:54.509Z,7.11
2023-08-25T06:19:55.155Z,8.02
2023-08-25T06:34:54.899Z,7.72
2023-08-25T06:49:54.533Z,7.16
2023-08-25T07:04:54.668Z,6.52
2023-08-25T07:19:55.161Z,6.3
2023-08-25T07:34:54.834Z,5.82
2023-08-25T07:49:55.291Z,4.92
2023-08-25T08:04:54.961Z,3.73
2023-08-25T08:19:54.584Z,3.1
2023-08-25T08:34:55.143Z,3.63
2023-08-25T08:49:54.817Z,3.64
2023-08-25T09:04:54.501Z,3.6
2023-08-25T09:19:54.933Z,3.55
2023-08-25T09:34:54.578Z,3.16
2023-08-25T09:49:55.034Z,2.86
2023-08-25T10:04:54.646Z,3.25
2023-08-25T10:19:55.107Z,3.97
2023-08-25T10:34:54.746Z,4.01
2023-08-25T10:49:55.184Z,4.41
2023-08-25T11:04:55.111Z,4.33
2023-08-25T11:19:54.716Z,4.59
2023-08-25T11:34:55.102Z,4.87
2023-08-25T11:49:54.636Z,5.15
2023-08-25T12:04:57.436Z,5.29
2023-08-25T12:19:54.697Z,5.29
2023-08-25T12:34:55.259Z,5.59
2023-08-25T12:49:54.852Z,5.51
2023-08-25T13:04:54.532Z,5.88
2023-08-25T13:19:54.999Z,5.85
2023-08-25T13:34:54.588Z,5.78
2023-08-25T13:49:55.099Z,5.39
2023-08-25T14:04:54.671Z,4.79
2023-08-25T14:19:55.071Z,4.59
2023-08-25T14:34:55.044Z,4.79
2023-08-25T14:49:54.979Z,4.82
2023-08-25T15:04:56.135Z,5.12
2023-08-25T15:19:54.722Z,5.18
2023-08-25T15:34:55.006Z,4.94
2023-08-25T15:49:55.287Z,5.29
2023-08-25T16:04:54.705Z,5.45
2023-08-25T16:19:55.029Z,5.22
2023-08-25T16:34:55.714Z,5.1
2023-08-25T16:49:56.721Z,4.67
2023-08-25T17:04:55.108Z,4.48
2023-08-25T17:19:54.600Z,4.18
2023-08-25T17:34:54.874Z,4.04
2023-08-25T17:49:55.322Z,4.03
2023-08-25T18:04:54.591Z,3.76
2023-08-25T18:19:54.908Z,3.44
2023-08-25T18:34:55.259Z,3.19
2023-08-25T18:49:54.780Z,3.23
2023-08-25T19:04:55.179Z,2.79
2023-08-25T19:19:54.647Z,2.82
2023-08-25T19:34:55.013Z,2.97
2023-08-25T19:49:54.570Z,2.74
2023-08-25T20:04:54.918Z,2.7
2023-08-25T20:19:55.268Z,2.55
2023-08-25T20:34:54.721Z,2.34
2023-08-25T20:49:55.111Z,2.3
2023-08-25T21:04:54.618Z,2.39
2023-08-25T21:19:54.966Z,2.05
2023-08-25T21:34:55.359Z,2.04
2023-08-25T21:49:54.864Z,1.94
2023-08-25T22:04:55.249Z,1.97
2023-08-25T22:20:04.766Z,1.97
2023-08-25T22:34:55.250Z,1.92
2023-08-25T22:49:54.619Z,1.99
2023-08-25T23:04:54.970Z,2.03
2023-08-25T23:19:54.524Z,1.73
2023-08-25T23:34:54.916Z,1.8
2023-08-25T23:49:55.258Z,1.42
